Time;durP1;ratioP1;P1;durP2;ratioP2;P2;SDS_P1;SDS_P2;PMS_P1;PMS_P2;Temp;Humidity;BMP_temperature;BMP_pressure;BME280_temperature;BME280_humidity;BME280_pressure;Samples;Min_cycle;Max_cycle;Signal;HPM_P1;HPM_P2
2023/05/03 00:00:29;;;;;;;4.05;2.60;;;;;;;14.01;77.72;101707.75;5096362;28;20111;-73
2023/05/03 00:03:15;;;;;;;5.15;2.80;;;;;;;14.43;77.04;101709.72;5080977;28;20032;-73
2023/05/03 00:06:15;;;;;;;5.25;2.83;;;;;;;14.47;77.31;101709.63;5095139;28;20363;-74
2023/05/03 00:09:01;;;;;;;5.57;3.20;;;;;;;14.21;81.30;101710.97;5081676;28;20035;-74
2023/05/03 00:11:47;;;;;;;4.43;2.60;;;;;;;13.89;87.24;101713.22;5097756;28;20117;-74
2023/05/03 00:14:32;;;;;;;4.97;3.10;;;;;;;14.11;86.86;101702.31;5084314;28;20128;-74
2023/05/03 00:17:18;;;;;;;6.53;3.25;;;;;;;13.98;90.90;101707.78;5096998;28;20027;-74
2023/05/03 00:20:05;;;;;;;6.88;3.17;;;;;;;13.73;95.10;101702.03;5095735;28;20038;-74
2023/05/03 00:22:51;;;;;;;6.93;3.30;;;;;;;13.88;96.40;101712.34;5095766;28;20097;-74
2023/05/03 00:25:37;;;;;;;5.53;3.45;;;;;;;14.07;96.16;101718.22;5096486;28;20035;-75
2023/05/03 00:28:24;;;;;;;5.25;3.25;;;;;;;13.91;99.10;101711.44;5095152;28;20360;-74
2023/05/03 00:31:10;;;;;;;5.30;3.40;;;;;;;14.01;99.55;101713.91;5095668;28;20054;-75
2023/05/03 00:33:56;;;;;;;5.15;3.35;;;;;;;14.01;100.00;101710.38;5081851;28;20146;-74
2023/05/03 00:36:41;;;;;;;6.10;3.00;;;;;;;14.00;100.00;101709.53;5095531;28;20027;-74
2023/05/03 00:39:30;;;;;;;8.05;3.60;;;;;;;13.98;100.00;101707.78;5096808;28;20055;-73
2023/05/03 00:42:16;;;;;;;11.00;3.50;;;;;;;13.93;100.00;101713.16;5095859;28;20020;-72
2023/05/03 00:45:04;;;;;;;7.65;3.95;;;;;;;14.06;100.00;101712.06;5096680;28;20028;-74
2023/05/03 00:47:50;;;;;;;6.97;3.95;;;;;;;14.13;100.00;101703.16;5094049;28;20036;-74
2023/05/03 00:50:36;;;;;;;5.13;3.45;;;;;;;14.22;100.00;101699.53;5079846;28;20055;-72
2023/05/03 00:53:22;;;;;;;4.47;3.30;;;;;;;14.13;100.00;101697.00;5094976;28;20031;-74
2023/05/03 00:56:08;;;;;;;4.80;3.35;;;;;;;14.05;100.00;101699.78;5097378;28;20039;-75
2023/05/03 00:58:54;;;;;;;7.57;3.88;;;;;;;13.92;100.00;101689.47;5097907;28;20097;-74
2023/05/03 01:01:40;;;;;;;5.53;3.40;;;;;;;13.82;100.00;101687.84;5095564;28;20042;-73
2023/05/03 01:04:26;;;;;;;5.35;3.47;;;;;;;13.95;100.00;101685.00;5080867;28;20043;-75
2023/05/03 01:07:38;;;;;;;7.85;3.83;;;;;;;13.78;100.00;101676.50;5081593;28;20032;-74
2023/05/03 01:11:00;;;;;;;7.07;4.35;;;;;;;13.65;100.00;101679.34;5095060;28;20067;-74
2023/05/03 01:14:15;;;;;;;7.80;4.20;;;;;;;13.62;100.00;101682.88;5097260;28;20055;-75
2023/05/03 01:17:07;;;;;;;6.25;4.28;;;;;;;13.66;100.00;101676.69;5059639;28;20039;-74
2023/05/03 01:20:07;;;;;;;7.00;4.07;;;;;;;13.91;100.00;101674.56;5082083;28;20024;-75
2023/05/03 01:22:55;;;;;;;7.78;4.78;;;;;;;13.65;100.00;101667.03;5066899;28;20039;-74
2023/05/03 01:25:41;;;;;;;5.30;3.92;;;;;;;13.61;100.00;101659.19;5094887;28;20032;-75
2023/05/03 01:28:27;;;;;;;7.00;4.13;;;;;;;13.87;100.00;101651.78;5093825;28;20109;-75
2023/05/03 01:31:42;;;;;;;6.65;4.15;;;;;;;13.41;100.00;101648.97;5094239;28;20024;-75
2023/05/03 01:34:34;;;;;;;6.93;4.20;;;;;;;13.04;100.00;101650.38;5096231;28;20024;-75
2023/05/03 01:37:20;;;;;;;5.68;3.70;;;;;;;13.36;100.00;101645.53;5079841;28;20352;-76
2023/05/03 01:40:08;;;;;;;7.63;4.22;;;;;;;13.34;100.00;101652.56;5094444;28;20111;-75
2023/05/03 01:42:55;;;;;;;6.90;4.65;;;;;;;13.48;100.00;101663.78;5094371;28;20027;-74
2023/05/03 01:45:42;;;;;;;6.78;4.43;;;;;;;13.37;100.00;101660.44;5080365;28;20032;-76
2023/05/03 01:48:28;;;;;;;8.52;4.63;;;;;;;13.11;100.00;101665.16;5094563;28;20043;-74
2023/05/03 01:51:13;;;;;;;6.68;4.10;;;;;;;12.79;100.00;101666.41;5081478;28;20334;-74
2023/05/03 01:53:59;;;;;;;6.95;4.10;;;;;;;13.16;100.00;101650.19;5102233;28;20028;-73
2023/05/03 01:56:45;;;;;;;8.50;4.25;;;;;;;13.39;100.00;101644.63;5088407;28;20027;-74
2023/05/03 01:59:31;;;;;;;7.50;4.55;;;;;;;13.26;100.00;101649.19;5101243;28;20051;-74
2023/05/03 02:02:17;;;;;;;6.93;4.45;;;;;;;13.17;100.00;101659.84;5100301;28;20035;-74
2023/05/03 02:05:03;;;;;;;10.15;4.93;;;;;;;13.34;100.00;101644.69;5106515;28;20020;-74
2023/05/03 02:07:48;;;;;;;7.90;4.80;;;;;;;13.54;100.00;101649.66;5114760;28;20034;-73
2023/05/03 02:10:34;;;;;;;7.93;4.55;;;;;;;13.59;100.00;101651.31;5116467;28;20059;-74
2023/05/03 02:13:20;;;;;;;9.82;4.75;;;;;;;12.48;100.00;101650.09;5117340;28;20035;-74
2023/05/03 02:16:06;;;;;;;7.00;5.05;;;;;;;12.19;100.00;101648.66;5102019;28;20379;-75
2023/05/03 02:18:53;;;;;;;8.98;5.13;;;;;;;12.09;100.00;101647.84;5117841;28;20043;-73
2023/05/03 02:21:39;;;;;;;10.27;5.35;;;;;;;11.76;100.00;101648.13;5108151;28;20027;-76
2023/05/03 02:24:24;;;;;;;12.13;5.40;;;;;;;11.44;100.00;101641.31;5103231;28;20061;-74
2023/05/03 02:27:10;;;;;;;11.82;5.50;;;;;;;11.52;100.00;101648.28;5116809;28;20089;-73
2023/05/03 02:29:56;;;;;;;9.32;5.20;;;;;;;11.82;100.00;101642.81;5117678;28;20081;-74
2023/05/03 02:32:42;;;;;;;10.43;5.57;;;;;;;12.11;100.00;101646.09;5119092;28;20032;-75
2023/05/03 02:35:27;;;;;;;8.95;4.97;;;;;;;12.26;100.00;101638.06;5118949;28;20023;-75
2023/05/03 02:38:13;;;;;;;8.93;5.13;;;;;;;11.52;100.00;101640.41;5103038;28;20020;-73
2023/05/03 02:40:59;;;;;;;9.32;5.40;;;;;;;11.87;100.00;101650.69;5113024;28;20076;-72
2023/05/03 02:43:45;;;;;;;8.68;4.93;;;;;;;11.80;100.00;101635.84;5103852;28;20065;-74
2023/05/03 02:46:30;;;;;;;7.53;4.97;;;;;;;11.30;100.00;101637.91;5117766;27;20046;-72
2023/05/03 02:49:16;;;;;;;9.98;5.60;;;;;;;11.70;100.00;101652.56;5118021;28;20044;-74
2023/05/03 02:52:02;;;;;;;10.98;5.82;;;;;;;11.90;100.00;101655.91;5104635;28;20024;-72
2023/05/03 02:54:48;;;;;;;9.48;5.60;;;;;;;11.83;100.00;101662.97;5096819;28;20035;-74
2023/05/03 02:57:34;;;;;;;8.77;5.15;;;;;;;12.09;100.00;101655.72;5093939;28;20028;-73
2023/05/03 03:00:20;;;;;;;9.57;5.40;;;;;;;12.08;100.00;101661.00;5109081;28;20020;-73
2023/05/03 03:03:06;;;;;;;9.13;5.45;;;;;;;12.18;100.00;101652.16;5106683;28;20039;-74
2023/05/03 03:05:52;;;;;;;7.90;5.38;;;;;;;11.91;100.00;101648.03;5108059;28;20061;-73
2023/05/03 03:08:38;;;;;;;12.27;5.72;;;;;;;12.04;100.00;101649.66;5099197;28;20127;-74
2023/05/03 03:11:24;;;;;;;9.80;5.40;;;;;;;11.94;100.00;101647.13;5099089;28;20043;-72
2023/05/03 03:14:09;;;;;;;20.77;6.40;;;;;;;11.72;100.00;101656.91;5109033;28;20475;-73
2023/05/03 03:16:55;;;;;;;10.82;5.63;;;;;;;11.51;100.00;101645.66;5092074;28;20035;-74
2023/05/03 03:19:41;;;;;;;14.20;6.13;;;;;;;11.79;100.00;101642.88;5117813;28;20043;-73
2023/05/03 03:22:27;;;;;;;9.45;5.72;;;;;;;11.48;100.00;101651.78;5097201;28;20016;-74
2023/05/03 03:25:12;;;;;;;11.75;6.00;;;;;;;11.33;100.00;101657.13;5099891;28;20016;-73
2023/05/03 03:27:59;;;;;;;13.10;6.00;;;;;;;11.05;100.00;101654.66;5095199;28;20016;-74
2023/05/03 03:30:45;;;;;;;9.55;6.25;;;;;;;11.04;100.00;101656.41;5103485;28;20097;-74
2023/05/03 03:33:31;;;;;;;11.52;6.30;;;;;;;11.28;100.00;101661.53;5101388;28;20024;-74
2023/05/03 03:36:16;;;;;;;17.27;6.95;;;;;;;11.24;100.00;101662.44;5105654;28;20137;-76
2023/05/03 03:39:03;;;;;;;15.52;7.10;;;;;;;11.17;100.00;101678.22;5100961;28;20062;-75
2023/05/03 03:41:49;;;;;;;12.50;6.70;;;;;;;11.46;100.00;101673.69;5097321;28;20424;-75
2023/05/03 03:44:35;;;;;;;12.60;6.80;;;;;;;11.29;100.00;101678.16;5098411;28;20036;-75
2023/05/03 03:47:21;;;;;;;14.13;6.88;;;;;;;11.69;100.00;101672.69;5096806;28;20112;-74
2023/05/03 03:50:07;;;;;;;13.23;6.40;;;;;;;11.58;100.00;101674.47;5083536;28;20032;-73
2023/05/03 03:52:53;;;;;;;22.52;6.97;;;;;;;11.65;100.00;101681.47;5098112;28;20032;-75
2023/05/03 03:55:38;;;;;;;14.88;7.47;;;;;;;11.51;100.00;101682.41;5082009;28;20103;-74
2023/05/03 03:58:24;;;;;;;18.73;7.07;;;;;;;11.46;100.00;101679.81;5083181;28;20036;-74
2023/05/03 04:01:11;;;;;;;11.15;7.22;;;;;;;11.60;100.00;101690.19;5082996;28;20024;-75
2023/05/03 04:03:56;;;;;;;16.20;7.10;;;;;;;11.39;100.00;101688.59;5096100;28;20039;-75
2023/05/03 04:06:42;;;;;;;13.32;7.57;;;;;;;11.59;100.00;101680.59;5084083;28;20020;-75
2023/05/03 04:09:28;;;;;;;12.57;7.35;;;;;;;11.62;100.00;101686.72;5083012;28;20032;-75
2023/05/03 04:12:14;;;;;;;12.63;7.97;;;;;;;11.36;100.00;101687.72;5097437;28;20083;-74
2023/05/03 04:14:59;;;;;;;14.43;7.45;;;;;;;11.55;100.00;101682.38;5097350;28;20110;-76
2023/05/03 04:17:45;;;;;;;12.30;7.20;;;;;;;11.70;100.00;101687.53;5098237;28;20093;-74
2023/05/03 04:20:32;;;;;;;13.30;7.75;;;;;;;11.59;100.00;101684.09;5085961;28;20058;-74
2023/05/03 04:23:18;;;;;;;16.88;7.97;;;;;;;11.69;100.00;101679.72;5098959;28;20028;-75
2023/05/03 04:26:04;;;;;;;16.80;7.40;;;;;;;12.21;100.00;101681.91;5099210;28;20333;-74
2023/05/03 04:28:50;;;;;;;13.82;8.02;;;;;;;11.96;100.00;101687.34;5100949;28;20049;-75
2023/05/03 04:31:38;;;;;;;14.60;8.55;;;;;;;11.89;100.00;101690.94;5099699;28;20100;-72
2023/05/03 04:34:24;;;;;;;15.88;8.55;;;;;;;11.82;100.00;101695.34;5095669;28;20482;-74
2023/05/03 04:37:10;;;;;;;18.42;8.77;;;;;;;11.76;100.00;101698.03;5114433;28;20032;-72
2023/05/03 04:39:56;;;;;;;17.35;8.60;;;;;;;11.96;100.00;101697.88;5115720;28;20019;-73
2023/05/03 04:42:42;;;;;;;22.05;9.68;;;;;;;12.06;100.00;101695.16;5113595;28;20034;-74
2023/05/03 04:45:28;;;;;;;23.42;9.13;;;;;;;12.13;100.00;101696.00;5115295;28;20039;-75
2023/05/03 04:48:14;;;;;;;20.05;9.57;;;;;;;12.10;100.00;101703.91;5116146;28;20016;-75
2023/05/03 04:51:00;;;;;;;17.38;9.00;;;;;;;12.57;100.00;101701.69;5114201;28;20034;-74
2023/05/03 04:53:46;;;;;;;15.18;8.15;;;;;;;12.51;100.00;101701.78;5115838;28;20027;-74
2023/05/03 04:56:34;;;;;;;21.70;8.82;;;;;;;12.51;100.00;101705.28;5102599;28;20056;-73
2023/05/03 04:59:20;;;;;;;19.63;9.50;;;;;;;12.23;100.00;101698.53;5114908;28;20040;-75
2023/05/03 05:02:06;;;;;;;18.63;9.13;;;;;;;12.55;100.00;101698.22;5115468;28;20068;-73
2023/05/03 05:04:55;;;;;;;19.35;9.18;;;;;;;12.61;100.00;101691.16;5100922;28;20053;-74
2023/05/03 05:07:40;;;;;;;18.67;9.93;;;;;;;12.66;100.00;101696.38;5115847;28;20016;-72
2023/05/03 05:10:26;;;;;;;30.13;10.18;;;;;;;12.92;100.00;101708.34;5116809;28;20020;-74
2023/05/03 05:13:12;;;;;;;24.33;9.43;;;;;;;13.07;100.00;101705.56;5098526;28;20012;-74
2023/05/03 05:15:58;;;;;;;14.20;8.45;;;;;;;13.03;100.00;101703.00;5100395;28;20054;-74
2023/05/03 05:18:44;;;;;;;25.75;9.35;;;;;;;12.88;100.00;101716.28;5099969;28;20024;-75
2023/05/03 05:21:30;;;;;;;24.25;9.27;;;;;;;13.04;100.00;101712.63;5101111;28;20035;-75
2023/05/03 05:24:16;;;;;;;24.67;9.63;;;;;;;13.14;100.00;101709.00;5117766;28;20004;-73
2023/05/03 05:27:02;;;;;;;20.52;8.55;;;;;;;13.48;100.00;101711.19;5097858;28;20024;-72
2023/05/03 05:29:49;;;;;;;17.17;8.32;;;;;;;13.30;100.00;101721.09;5112726;28;20028;-73
2023/05/03 05:32:34;;;;;;;16.88;9.20;;;;;;;13.35;100.00;101717.47;5111859;28;20039;-73
2023/05/03 05:35:20;;;;;;;16.90;8.75;;;;;;;13.40;100.00;101710.41;5094687;28;20023;-73
2023/05/03 05:38:06;;;;;;;19.60;9.07;;;;;;;13.41;100.00;101712.16;5111990;28;20043;-73
2023/05/03 05:40:52;;;;;;;20.08;9.65;;;;;;;13.86;100.00;101714.13;5105455;28;20047;-72
2023/05/03 05:43:37;;;;;;;29.33;9.30;;;;;;;13.76;100.00;101707.28;5092602;28;20034;-72
2023/05/03 05:46:23;;;;;;;26.33;8.90;;;;;;;13.94;100.00;101714.88;5113688;28;20024;-73
2023/05/03 05:49:09;;;;;;;16.55;9.05;;;;;;;14.16;100.00;101718.06;5103453;28;20019;-73
2023/05/03 05:51:56;;;;;;;16.80;8.13;;;;;;;14.30;100.00;101722.25;5096810;28;20032;-74
2023/05/03 05:54:42;;;;;;;17.13;9.00;;;;;;;14.33;100.00;101723.94;5099765;28;20062;-74
2023/05/03 05:57:27;;;;;;;20.48;9.35;;;;;;;14.54;100.00;101721.81;5100820;28;20043;-73
2023/05/03 06:00:14;;;;;;;22.15;9.07;;;;;;;14.56;100.00;101727.91;5100021;28;20124;-73
2023/05/03 06:03:00;;;;;;;23.05;9.93;;;;;;;14.70;100.00;101739.13;5101424;28;20029;-75
2023/05/03 06:05:45;;;;;;;14.57;9.50;;;;;;;14.39;100.00;101737.91;5100870;28;20079;-76
2023/05/03 06:08:31;;;;;;;16.98;9.13;;;;;;;14.38;100.00;101740.56;5084510;28;20467;-75
2023/05/03 06:11:17;;;;;;;21.00;9.27;;;;;;;14.38;100.00;101740.56;5099571;28;20106;-73
2023/05/03 06:14:03;;;;;;;18.67;9.50;;;;;;;14.46;100.00;101743.94;5084988;28;20101;-74
2023/05/03 06:16:49;;;;;;;19.27;9.82;;;;;;;14.75;100.00;101739.88;5099169;28;20023;-75
2023/05/03 06:19:34;;;;;;;32.30;10.15;;;;;;;15.08;100.00;101746.31;5085654;28;20082;-74
2023/05/03 06:22:20;;;;;;;18.85;9.82;;;;;;;15.24;100.00;101745.09;5099583;28;20093;-76
2023/05/03 06:25:06;;;;;;;19.48;9.88;;;;;;;15.30;100.00;101752.03;5098203;28;20020;-75
2023/05/03 06:27:52;;;;;;;25.92;11.07;;;;;;;15.15;100.00;101753.19;5085240;28;20123;-75
2023/05/03 06:30:38;;;;;;;18.83;10.15;;;;;;;15.36;100.00;101747.53;5083783;28;20063;-76
2023/05/03 06:33:24;;;;;;;15.75;9.52;;;;;;;15.40;100.00;101746.56;5098732;28;20047;-74
2023/05/03 06:36:10;;;;;;;14.82;9.75;;;;;;;15.25;100.00;101743.31;5097401;28;20028;-76
2023/05/03 06:38:55;;;;;;;18.35;9.68;;;;;;;15.76;100.00;101736.97;5096127;28;20066;-75
2023/05/03 06:41:41;;;;;;;21.13;10.23;;;;;;;16.23;100.00;101749.97;5098996;28;20513;-77
2023/05/03 06:44:27;;;;;;;18.42;10.18;;;;;;;16.10;100.00;101743.19;5084414;28;20036;-73
2023/05/03 06:47:13;;;;;;;24.25;10.43;;;;;;;16.41;100.00;101739.81;5083498;28;20056;-73
2023/05/03 06:49:59;;;;;;;18.92;11.07;;;;;;;16.64;100.00;101757.75;5097276;28;20042;-72
2023/05/03 06:52:45;;;;;;;17.35;10.88;;;;;;;16.09;100.00;101754.69;5097323;28;20032;-75
2023/05/03 06:55:31;;;;;;;26.77;10.57;;;;;;;16.28;100.00;101761.28;5096753;28;20035;-75
2023/05/03 06:58:17;;;;;;;19.90;10.13;;;;;;;16.37;100.00;101769.88;5083396;28;20020;-76
2023/05/03 07:01:03;;;;;;;14.13;9.07;;;;;;;16.62;100.00;101770.16;5082146;28;20035;-79
2023/05/03 07:03:49;;;;;;;16.92;9.65;;;;;;;16.71;100.00;101768.13;5099454;28;20424;-76
2023/05/03 07:06:34;;;;;;;16.70;9.93;;;;;;;17.12;100.00;101780.28;5113885;28;20031;-75
2023/05/03 07:09:20;;;;;;;15.30;9.50;;;;;;;16.67;100.00;101779.72;5115542;28;20024;-76
2023/05/03 07:12:06;;;;;;;17.30;9.13;;;;;;;17.30;100.00;101790.38;5087290;28;20031;-76
2023/05/03 07:14:53;;;;;;;17.80;10.13;;;;;;;17.12;100.00;101793.53;5101316;28;20093;-77
2023/05/03 07:17:39;;;;;;;17.67;8.73;;;;;;;16.65;100.00;101794.78;5100598;28;20043;-76
2023/05/03 07:20:25;;;;;;;12.50;8.32;;;;;;;17.41;100.00;101801.56;5097538;28;20149;-75
2023/05/03 07:23:10;;;;;;;16.25;9.43;;;;;;;17.86;100.00;101789.63;5100020;28;20018;-75
2023/05/03 07:25:56;;;;;;;19.70;9.25;;;;;;;17.89;100.00;101795.69;5106073;28;20004;-75
2023/05/03 07:28:42;;;;;;;17.92;8.95;;;;;;;17.61;100.00;101794.75;5107503;28;20030;-72
2023/05/03 07:31:28;;;;;;;19.38;8.57;;;;;;;17.65;100.00;101793.75;5099100;27;20092;-75
2023/05/03 07:34:14;;;;;;;17.85;8.95;;;;;;;18.01;100.00;101784.69;5097327;28;20105;-75
2023/05/03 07:37:00;;;;;;;18.00;9.00;;;;;;;18.23;100.00;101785.78;5084205;28;20038;-75
2023/05/03 07:39:46;;;;;;;16.15;9.07;;;;;;;18.67;98.92;101782.56;5096910;28;20024;-76
2023/05/03 07:42:31;;;;;;;15.82;9.20;;;;;;;18.49;100.00;101792.94;5098338;28;20369;-76
2023/05/03 07:45:18;;;;;;;11.88;7.88;;;;;;;18.56;100.00;101802.41;5097538;28;20043;-75
2023/05/03 07:48:05;;;;;;;16.83;8.27;;;;;;;19.26;99.38;101793.81;5097391;28;20138;-76
2023/05/03 07:50:50;;;;;;;13.48;8.07;;;;;;;18.74;100.00;101780.56;5081166;28;20334;-77
2023/05/03 07:53:38;;;;;;;19.80;8.10;;;;;;;19.52;97.19;101780.41;5097702;28;20030;-75
2023/05/03 07:56:26;;;;;;;15.18;7.25;;;;;;;19.79;95.40;101792.66;5097299;28;20040;-76
2023/05/03 07:59:12;;;;;;;22.08;8.18;;;;;;;20.30;91.52;101798.66;5096370;28;20511;-76
2023/05/03 08:01:58;;;;;;;11.52;7.00;;;;;;;20.25;92.50;101795.28;5096537;28;20050;-75
2023/05/03 08:04:43;;;;;;;23.33;8.05;;;;;;;20.57;90.23;101791.34;5082624;28;20024;-77
2023/05/03 08:07:30;;;;;;;13.38;6.80;;;;;;;20.55;87.22;101794.06;5096794;28;20051;-77
2023/05/03 08:10:16;;;;;;;10.27;6.40;;;;;;;20.66;87.78;101786.47;5079525;28;20040;-76
2023/05/03 08:13:02;;;;;;;11.98;5.72;;;;;;;20.72;84.24;101780.88;5096422;28;20047;-76
2023/05/03 08:15:48;;;;;;;9.85;5.40;;;;;;;20.74;80.93;101776.34;5082983;28;20100;-75
2023/05/03 08:18:34;;;;;;;12.00;6.28;;;;;;;20.33;81.90;101776.38;5081226;28;20093;-76
2023/05/03 08:21:20;;;;;;;7.90;5.20;;;;;;;20.76;77.82;101782.50;5096402;28;20020;-77
2023/05/03 08:24:08;;;;;;;16.90;6.18;;;;;;;21.16;76.97;101787.88;5096882;28;20047;-77
2023/05/03 08:26:54;;;;;;;7.88;5.15;;;;;;;22.16;72.38;101778.75;5096917;28;20032;-76
2023/05/03 08:29:40;;;;;;;9.70;5.25;;;;;;;22.18;72.56;101768.88;5096248;28;20023;-76
2023/05/03 08:32:26;;;;;;;15.27;5.22;;;;;;;22.83;71.57;101761.97;5096212;28;20077;-76
2023/05/03 08:35:14;;;;;;;23.42;5.53;;;;;;;23.45;67.65;101753.34;5081575;28;20063;-75
2023/05/03 08:37:59;;;;;;;10.15;5.32;;;;;;;23.29;67.07;101752.44;5096779;28;20024;-76
2023/05/03 08:40:49;;;;;;;12.90;5.50;;;;;;;23.52;64.17;101754.75;5082061;28;20064;-76
2023/05/03 08:43:42;;;;;;;11.55;5.70;;;;;;;22.46;71.40;101758.53;5095361;28;20024;-75
2023/05/03 08:46:28;;;;;;;9.68;4.43;;;;;;;23.15;61.26;101755.81;5081503;28;20028;-76
2023/05/03 08:49:14;;;;;;;9.30;4.00;;;;;;;22.93;53.96;101763.25;5095914;28;20562;-76
2023/05/03 08:52:01;;;;;;;11.70;3.85;;;;;;;22.77;50.31;101754.28;5096239;28;20089;-76
2023/05/03 08:54:48;;;;;;;8.15;3.70;;;;;;;23.44;50.23;101744.44;5096592;28;20042;-76
2023/05/03 08:57:34;;;;;;;16.33;4.07;;;;;;;22.57;49.35;101740.22;5095750;28;20027;-76
2023/05/03 09:00:28;;;;;;;6.15;2.85;;;;;;;22.50;48.37;101739.66;5095922;28;20024;-75
2023/05/03 09:03:13;;;;;;;8.73;3.20;;;;;;;23.09;47.66;101726.75;5093788;28;20032;-76
2023/05/03 09:06:00;;;;;;;7.20;3.97;;;;;;;22.67;47.24;101726.28;5081664;28;20020;-76
2023/05/03 09:08:46;;;;;;;11.80;3.55;;;;;;;22.53;46.35;101715.47;5081683;28;20032;-77
2023/05/03 09:11:33;;;;;;;7.35;3.10;;;;;;;22.63;45.72;101729.22;5080423;28;20380;-77
2023/05/03 09:14:20;;;;;;;11.48;2.85;;;;;;;22.53;44.32;101710.13;5081560;28;20047;-75
2023/05/03 09:17:15;;;;;;;6.57;3.03;;;;;;;21.97;46.03;101720.06;5096022;28;20040;-76
2023/05/03 09:20:00;;;;;;;6.32;3.13;;;;;;;22.40;47.62;101714.34;5096050;28;20028;-76
2023/05/03 09:22:51;;;;;;;7.40;3.53;;;;;;;22.32;48.05;101715.66;5095300;28;20016;-76
2023/05/03 09:25:41;;;;;;;10.02;3.45;;;;;;;22.39;47.40;101723.25;5095845;28;20020;-75
2023/05/03 09:28:26;;;;;;;7.70;3.42;;;;;;;22.40;47.07;101719.69;5095023;28;20028;-75
2023/05/03 09:31:12;;;;;;;8.88;3.50;;;;;;;23.19;45.46;101717.28;5095796;28;20028;-76
2023/05/03 09:33:58;;;;;;;7.22;2.80;;;;;;;22.51;45.58;101713.81;5094968;28;20444;-76
2023/05/03 09:36:45;;;;;;;5.90;3.00;;;;;;;22.37;45.80;101718.94;5095987;28;20050;-77
2023/05/03 09:39:31;;;;;;;7.25;3.13;;;;;;;22.42;46.09;101717.78;5093724;28;20027;-75
2023/05/03 09:42:18;;;;;;;7.07;3.03;;;;;;;22.17;44.63;101727.97;5094328;28;20040;-77
2023/05/03 09:45:04;;;;;;;8.85;3.70;;;;;;;22.13;44.39;101729.03;5093657;28;20020;-75
2023/05/03 09:47:51;;;;;;;8.75;3.00;;;;;;;21.91;45.54;101731.00;5095110;28;20028;-76
2023/05/03 09:50:37;;;;;;;11.85;3.28;;;;;;;22.03;45.03;101714.41;5095428;28;20024;-76
2023/05/03 09:53:24;;;;;;;16.20;3.47;;;;;;;22.04;44.66;101720.63;5095503;28;20448;-76
2023/05/03 09:56:13;;;;;;;13.23;3.50;;;;;;;22.14;43.54;101728.09;5095332;28;20372;-75
2023/05/03 09:58:59;;;;;;;23.38;3.88;;;;;;;22.53;43.33;101726.16;5095185;28;20070;-75
2023/05/03 10:01:46;;;;;;;8.25;3.25;;;;;;;22.15;42.48;101735.16;5095542;28;20032;-75
2023/05/03 10:04:42;;;;;;;5.70;3.00;;;;;;;21.77;42.63;101725.47;5066729;28;20034;-76
2023/05/03 10:07:30;;;;;;;14.75;3.20;;;;;;;22.53;41.41;101728.81;5092507;28;20076;-75
2023/05/03 10:10:16;;;;;;;4.32;2.85;;;;;;;22.33;43.27;101720.91;5095204;28;20036;-76
2023/05/03 10:13:02;;;;;;;5.97;2.90;;;;;;;21.99;45.74;101714.66;5094362;28;20040;-76
2023/05/03 10:15:56;;;;;;;3.97;2.97;;;;;;;22.07;46.88;101704.47;5100494;28;20034;-76
2023/05/03 10:18:51;;;;;;;15.80;2.90;;;;;;;21.61;48.26;101705.78;5098850;28;20027;-76
2023/05/03 10:22:01;;;;;;;6.85;3.20;;;;;;;21.99;48.41;101703.97;5098120;28;20070;-76
2023/05/03 10:25:00;;;;;;;9.45;2.88;;;;;;;21.94;46.34;101701.50;5083953;28;20027;-75
2023/05/03 10:27:45;;;;;;;10.48;3.22;;;;;;;22.34;47.05;101695.94;5084551;28;20024;-75
2023/05/03 10:30:33;;;;;;;9.25;3.35;;;;;;;22.61;46.04;101680.34;5098079;28;20142;-75
2023/05/03 10:33:19;;;;;;;7.75;2.45;;;;;;;22.91;44.83;101682.25;5098017;28;20500;-75
2023/05/03 10:36:09;;;;;;;7.93;2.80;;;;;;;22.54;45.23;101669.09;5098007;28;20071;-76
2023/05/03 10:38:56;;;;;;;15.15;3.00;;;;;;;21.96;44.80;101682.75;5098481;28;20036;-76
2023/05/03 10:41:41;;;;;;;6.78;3.03;;;;;;;21.98;45.00;101684.41;5097907;28;20436;-75
2023/05/03 10:44:47;;;;;;;17.45;3.20;;;;;;;21.78;45.94;101686.34;5098681;28;20024;-75
2023/05/03 10:47:33;;;;;;;7.10;3.05;;;;;;;21.85;45.85;101677.94;5094656;28;20047;-75
2023/05/03 10:50:23;;;;;;;6.35;3.40;;;;;;;22.27;45.67;101681.16;5098421;28;20070;-75
2023/05/03 10:53:38;;;;;;;7.45;3.28;;;;;;;22.20;46.80;101676.22;5084174;28;20055;-76
2023/05/03 10:56:23;;;;;;;5.18;2.83;;;;;;;21.91;46.20;101672.31;5098460;28;20054;-75
2023/05/03 10:59:09;;;;;;;7.65;2.58;;;;;;;21.76;47.00;101675.75;5083040;28;20055;-76
2023/05/03 11:01:55;;;;;;;8.60;3.20;;;;;;;22.06;46.43;101670.72;5097496;28;20390;-76
2023/05/03 11:04:47;;;;;;;10.77;3.33;;;;;;;21.99;46.22;101672.78;5097336;28;20028;-76
2023/05/03 11:07:33;;;;;;;7.85;2.80;;;;;;;22.28;46.22;101669.56;5098028;28;20096;-76
2023/05/03 11:10:19;;;;;;;6.90;2.55;;;;;;;21.94;46.76;101650.81;5097530;28;20079;-75
2023/05/03 11:13:05;;;;;;;7.95;2.88;;;;;;;22.19;46.30;101645.13;5097571;28;20024;-75
2023/05/03 11:15:55;;;;;;;7.05;2.75;;;;;;;22.52;45.96;101630.06;5096852;28;20119;-75
2023/05/03 11:18:40;;;;;;;13.82;3.10;;;;;;;22.76;46.79;101629.66;5097266;28;20024;-76
2023/05/03 11:21:26;;;;;;;4.65;2.60;;;;;;;22.68;44.37;101639.88;5082856;28;20024;-75
2023/05/03 11:24:12;;;;;;;10.45;3.40;;;;;;;23.32;43.47;101624.75;5099145;28;20035;-76
2023/05/03 11:26:58;;;;;;;8.13;2.80;;;;;;;23.58;41.85;101625.97;5106832;28;20105;-76
2023/05/03 11:29:48;;;;;;;8.52;2.85;;;;;;;24.10;41.67;101631.91;5103170;28;20114;-75
2023/05/03 11:32:33;;;;;;;8.05;2.83;;;;;;;23.49;42.09;101623.81;5097303;28;20491;-76
2023/05/03 11:35:22;;;;;;;14.70;2.90;;;;;;;23.25;41.84;101623.41;5098537;28;20028;-76
2023/05/03 11:38:09;;;;;;;8.02;2.58;;;;;;;23.18;43.94;101621.09;5097559;28;20471;-75
2023/05/03 11:40:55;;;;;;;14.60;3.30;;;;;;;23.19;44.79;101617.50;5096552;28;20116;-76
2023/05/03 11:43:42;;;;;;;12.90;2.88;;;;;;;23.24;42.01;101623.47;5073878;28;20032;-76
2023/05/03 11:46:33;;;;;;;6.57;2.53;;;;;;;22.93;39.95;101618.91;5097187;28;20034;-76
2023/05/03 11:49:19;;;;;;;9.05;2.60;;;;;;;22.28;41.17;101624.16;5081963;28;20097;-75
2023/05/03 11:52:05;;;;;;;5.78;2.80;;;;;;;22.24;41.92;101619.91;5100486;28;20035;-75
2023/05/03 11:54:51;;;;;;;8.90;2.90;;;;;;;22.32;42.71;101619.50;5108918;28;20031;-75
2023/05/03 11:57:37;;;;;;;6.20;2.80;;;;;;;22.20;43.77;101614.81;5102514;28;20515;-76
2023/05/03 12:00:24;;;;;;;8.13;3.67;;;;;;;22.13;44.48;101606.25;5096309;28;20462;-75
2023/05/03 12:03:10;;;;;;;15.02;5.00;;;;;;;22.10;45.67;101606.41;5096568;28;20466;-71
2023/05/03 12:05:56;;;;;;;11.65;6.35;;;;;;;22.32;46.59;101603.50;5084642;28;20028;-75
2023/05/03 12:08:42;;;;;;;8.27;3.40;;;;;;;22.55;46.55;101604.03;5040861;28;20029;-73
2023/05/03 12:11:28;;;;;;;7.15;2.95;;;;;;;22.61;46.25;101602.84;5074616;28;20082;-73
2023/05/03 12:14:14;;;;;;;6.22;2.60;;;;;;;22.24;45.88;101597.69;5061261;28;20448;-73
2023/05/03 12:17:00;;;;;;;7.15;2.50;;;;;;;22.60;45.73;101596.69;5048565;28;20456;-74
2023/05/03 12:19:46;;;;;;;8.70;2.70;;;;;;;22.75;45.80;101597.66;5075237;28;20027;-74
2023/05/03 12:22:33;;;;;;;6.38;2.40;;;;;;;22.37;46.06;101599.66;5074894;28;20021;-73
2023/05/03 12:25:20;;;;;;;5.90;2.53;;;;;;;22.73;44.97;101597.75;5078615;28;20443;-74
2023/05/03 12:28:07;;;;;;;4.72;2.30;;;;;;;23.43;44.58;101592.94;5096473;28;20036;-75
2023/05/03 12:30:53;;;;;;;8.75;3.00;;;;;;;22.91;45.40;101595.88;5095436;28;20028;-75
2023/05/03 12:33:39;;;;;;;3.35;2.20;;;;;;;22.91;45.65;101591.38;5095909;28;20055;-74
2023/05/03 12:36:25;;;;;;;7.95;2.80;;;;;;;23.13;45.77;101593.75;5094915;28;20338;-74
2023/05/03 12:39:12;;;;;;;16.83;3.42;;;;;;;23.06;45.67;101590.56;5096108;28;20023;-74
2023/05/03 12:41:58;;;;;;;10.65;2.78;;;;;;;23.20;45.42;101576.47;5095824;28;20035;-74
2023/05/03 12:44:44;;;;;;;4.88;2.40;;;;;;;23.56;44.51;101576.19;5095632;28;20027;-75
2023/05/03 12:47:30;;;;;;;12.63;2.75;;;;;;;24.04;43.18;101578.69;5096142;28;20449;-73